Time;durP1;ratioP1;P1;durP2;ratioP2;P2;SDS_P1;SDS_P2;PMS_P1;PMS_P2;Temp;Humidity;BMP_temperature;BMP_pressure;BME280_temperature;BME280_humidity;BME280_pressure;Samples;Min_cycle;Max_cycle;Signal;HPM_P1;HPM_P2
2022/06/25 00:00:42;;;;;;;24.52;22.23;;;19.40;99.90;;;;;;4958555;28;20097;-42
2022/06/25 00:03:09;;;;;;;25.98;23.38;;;19.40;99.90;;;;;;4989462;28;20129;-43
2022/06/25 00:05:37;;;;;;;23.65;21.08;;;19.30;99.90;;;;;;4991189;28;20100;-43
2022/06/25 00:08:04;;;;;;;21.63;19.52;;;19.30;99.90;;;;;;4995559;28;20461;-42
2022/06/25 00:10:31;;;;;;;18.98;17.17;;;19.30;99.90;;;;;;4969171;28;20126;-43
2022/06/25 00:12:57;;;;;;;18.70;16.70;;;19.30;99.90;;;;;;4979839;28;20498;-43
2022/06/25 00:15:23;;;;;;;24.00;21.48;;;19.20;99.90;;;;;;4980603;28;20045;-43
2022/06/25 00:17:50;;;;;;;19.95;17.83;;;19.20;99.90;;;;;;4984042;28;20078;-43
2022/06/25 00:20:17;;;;;;;19.40;17.30;;;19.10;99.90;;;;;;4996039;28;20050;-43
2022/06/25 00:22:45;;;;;;;19.67;17.85;;;19.10;99.90;;;;;;4995325;28;20085;-43
2022/06/25 00:25:12;;;;;;;21.70;19.42;;;19.10;99.90;;;;;;4978527;28;20401;-43
2022/06/25 00:27:39;;;;;;;19.08;17.20;;;19.10;99.90;;;;;;4984874;28;20074;-43
2022/06/25 00:30:07;;;;;;;15.45;13.38;;;19.00;99.90;;;;;;4985683;28;20100;-43
2022/06/25 00:32:34;;;;;;;26.33;19.00;;;19.00;99.90;;;;;;4994998;28;20113;-43
2022/06/25 00:35:00;;;;;;;20.10;18.02;;;19.00;99.90;;;;;;4981614;28;20133;-44
2022/06/25 00:37:27;;;;;;;18.58;16.60;;;18.90;99.90;;;;;;4983211;28;20128;-43
2022/06/25 00:39:55;;;;;;;16.88;14.95;;;18.90;99.90;;;;;;4977230;28;20069;-43
2022/06/25 00:42:22;;;;;;;21.35;15.75;;;18.90;99.90;;;;;;4971209;28;20121;-43
2022/06/25 00:44:49;;;;;;;17.38;15.63;;;18.90;99.90;;;;;;4998605;28;20126;-43
2022/06/25 00:47:16;;;;;;;20.08;15.90;;;18.80;99.90;;;;;;4995052;28;20047;-44
2022/06/25 00:49:43;;;;;;;17.63;15.82;;;18.80;99.90;;;;;;4977308;28;20050;-43
2022/06/25 00:52:11;;;;;;;19.13;14.90;;;18.80;99.90;;;;;;4995128;28;20108;-43
2022/06/25 00:54:39;;;;;;;17.35;15.20;;;18.80;99.90;;;;;;4985438;28;20046;-43
2022/06/25 00:57:08;;;;;;;17.05;15.32;;;18.80;99.90;;;;;;4980550;28;20088;-44
2022/06/25 00:59:37;;;;;;;16.63;13.98;;;18.70;99.90;;;;;;4977147;28;20136;-42
2022/06/25 01:02:04;;;;;;;14.63;12.50;;;18.70;99.90;;;;;;4977185;28;20054;-43
2022/06/25 01:04:31;;;;;;;12.98;11.60;;;18.70;99.90;;;;;;4994353;28;20078;-43
2022/06/25 01:06:58;;;;;;;14.38;12.25;;;18.70;99.90;;;;;;4995153;28;20486;-43
2022/06/25 01:09:26;;;;;;;13.27;11.88;;;18.70;99.90;;;;;;4993506;28;20108;-43
2022/06/25 01:11:53;;;;;;;12.50;9.25;;;18.70;99.90;;;;;;4976732;28;20097;-43
2022/06/25 01:14:21;;;;;;;13.57;10.40;;;18.60;99.90;;;;;;4994988;28;20130;-43
2022/06/25 01:16:48;;;;;;;14.90;12.23;;;18.60;99.90;;;;;;4992114;28;20117;-44
2022/06/25 01:19:15;;;;;;;11.18;10.02;;;18.60;99.90;;;;;;4993831;28;20054;-43
2022/06/25 01:21:42;;;;;;;10.95;9.82;;;18.50;99.90;;;;;;4984196;28;20046;-43
2022/06/25 01:24:11;;;;;;;14.55;11.93;;;18.60;99.90;;;;;;4992949;28;20039;-44
2022/06/25 01:26:39;;;;;;;15.18;12.27;;;18.60;99.90;;;;;;4978005;28;20386;-43
2022/06/25 01:29:06;;;;;;;14.75;12.07;;;18.50;99.90;;;;;;4977335;28;20042;-43
2022/06/25 01:31:33;;;;;;;13.20;12.00;;;18.50;99.90;;;;;;4982502;28;20470;-43
2022/06/25 01:34:00;;;;;;;12.15;9.38;;;18.50;99.90;;;;;;4979205;28;20101;-43
2022/06/25 01:36:27;;;;;;;11.13;10.02;;;18.40;99.90;;;;;;4995151;28;20124;-43
2022/06/25 01:38:54;;;;;;;9.25;8.35;;;18.40;99.90;;;;;;4997633;28;20093;-44
2022/06/25 01:41:22;;;;;;;10.70;9.60;;;18.40;99.90;;;;;;4993309;28;20431;-44
2022/06/25 01:43:49;;;;;;;8.02;6.97;;;18.40;99.90;;;;;;4992714;28;20117;-44
2022/06/25 01:46:15;;;;;;;11.60;9.63;;;18.40;99.90;;;;;;4984138;28;20074;-44
2022/06/25 01:48:42;;;;;;;11.07;9.98;;;18.40;99.90;;;;;;4986116;28;20202;-44
2022/06/25 01:51:09;;;;;;;10.70;9.60;;;18.30;99.90;;;;;;4976981;28;20078;-43
2022/06/25 01:53:36;;;;;;;8.23;7.22;;;18.30;99.90;;;;;;4987033;28;20446;-43
2022/06/25 01:56:03;;;;;;;11.00;9.27;;;18.30;99.90;;;;;;4988957;28;20120;-43
2022/06/25 01:58:31;;;;;;;10.27;8.93;;;18.30;99.90;;;;;;4993923;28;20108;-43
2022/06/25 02:00:58;;;;;;;11.27;8.38;;;18.20;99.90;;;;;;4992537;28;20042;-43
2022/06/25 02:03:25;;;;;;;10.32;8.38;;;18.20;99.90;;;;;;4994914;28;20081;-42
2022/06/25 02:05:58;;;;;;;8.70;7.90;;;18.20;99.90;;;;;;4993198;28;20490;-42
2022/06/25 02:08:25;;;;;;;11.60;8.20;;;18.10;99.90;;;;;;4993354;28;20050;-43
2022/06/25 02:10:52;;;;;;;9.35;8.45;;;18.10;99.90;;;;;;4975283;28;20136;-43
2022/06/25 02:13:19;;;;;;;9.38;7.32;;;18.10;99.90;;;;;;4993836;28;20042;-43
2022/06/25 02:15:47;;;;;;;9.05;7.72;;;18.10;99.90;;;;;;4992164;28;20085;-42
2022/06/25 02:18:14;;;;;;;8.63;7.13;;;18.10;99.90;;;;;;4966172;28;20042;-43
2022/06/25 02:20:42;;;;;;;7.70;6.90;;;18.10;99.90;;;;;;4993007;28;20136;-43
2022/06/25 02:23:08;;;;;;;11.02;8.07;;;18.00;99.90;;;;;;4975702;28;20105;-43
2022/06/25 02:25:35;;;;;;;8.68;7.43;;;18.10;99.90;;;;;;4993878;28;20084;-43
2022/06/25 02:28:02;;;;;;;8.38;7.47;;;18.00;99.90;;;;;;4975990;28;20078;-43
2022/06/25 02:30:29;;;;;;;10.93;9.05;;;18.00;99.90;;;;;;4983230;28;20132;-43
2022/06/25 02:32:57;;;;;;;11.88;7.53;;;18.00;99.90;;;;;;4975089;28;20082;-43
2022/06/25 02:35:24;;;;;;;11.07;8.60;;;17.90;99.90;;;;;;4976736;28;20494;-43
2022/06/25 02:37:50;;;;;;;10.23;7.65;;;17.90;99.90;;;;;;4974290;28;20502;-43
2022/06/25 02:40:17;;;;;;;9.63;8.40;;;17.90;99.90;;;;;;4975117;28;20046;-43
2022/06/25 02:42:44;;;;;;;14.40;8.93;;;17.90;99.90;;;;;;4992492;28;20078;-43
2022/06/25 02:45:11;;;;;;;7.90;6.68;;;17.90;99.90;;;;;;4993445;28;20065;-43
2022/06/25 02:47:38;;;;;;;10.20;9.23;;;17.90;99.90;;;;;;4991839;28;20039;-43
2022/06/25 02:50:07;;;;;;;9.45;8.45;;;17.90;99.90;;;;;;4975940;28;20083;-42
2022/06/25 02:52:34;;;;;;;10.73;9.63;;;17.90;99.90;;;;;;5005236;28;20046;-43
2022/06/25 02:55:01;;;;;;;6.90;6.20;;;17.80;99.90;;;;;;4975776;28;20579;-43
2022/06/25 03:00:14;;;;;;;9.23;8.27;;;17.80;99.90;;;;;;4983182;28;20121;-43
2022/06/25 03:02:41;;;;;;;12.40;10.10;;;17.70;99.90;;;;;;4969645;28;20053;-43
2022/06/25 03:05:09;;;;;;;10.32;9.32;;;17.70;99.90;;;;;;4973357;28;20435;-44
2022/06/25 03:07:36;;;;;;;10.60;9.15;;;17.70;99.90;;;;;;4955527;28;20162;-43
2022/06/25 03:10:03;;;;;;;10.30;9.23;;;17.70;99.90;;;;;;4954886;28;20518;-43
2022/06/25 03:12:31;;;;;;;14.55;9.45;;;17.70;99.90;;;;;;4959286;28;20669;-44
2022/06/25 03:14:57;;;;;;;10.45;8.95;;;17.70;99.90;;;;;;4971924;28;20125;-43
2022/06/25 03:17:24;;;;;;;10.93;9.82;;;17.60;99.90;;;;;;4973282;28;20074;-44
2022/06/25 03:19:51;;;;;;;11.43;9.30;;;17.70;99.90;;;;;;4955846;28;20046;-43
2022/06/25 03:22:20;;;;;;;11.30;9.82;;;17.70;99.90;;;;;;4973948;28;20078;-43
2022/06/25 03:24:47;;;;;;;10.68;9.57;;;17.60;99.90;;;;;;4955491;28;20440;-43
2022/06/25 03:27:14;;;;;;;10.48;9.20;;;17.60;99.90;;;;;;4972684;28;20083;-43
2022/06/25 03:29:41;;;;;;;10.68;8.95;;;17.60;99.90;;;;;;4955248;28;20102;-43
2022/06/25 03:32:08;;;;;;;9.75;8.75;;;17.60;99.90;;;;;;4973028;28;20101;-44
2022/06/25 03:34:35;;;;;;;12.63;9.85;;;17.60;99.90;;;;;;4974329;28;20474;-43
2022/06/25 03:37:02;;;;;;;11.77;9.55;;;17.60;99.90;;;;;;4963442;28;20145;-43
2022/06/25 03:39:30;;;;;;;11.88;10.18;;;17.60;99.90;;;;;;4976509;28;20042;-43
2022/06/25 03:41:57;;;;;;;10.80;9.50;;;17.50;99.90;;;;;;4960042;28;20082;-43
2022/06/25 03:44:23;;;;;;;13.50;9.55;;;17.50;99.90;;;;;;4976607;28;20479;-43
2022/06/25 03:46:50;;;;;;;14.20;9.73;;;17.50;99.90;;;;;;4976154;28;20038;-43
2022/06/25 03:49:17;;;;;;;13.98;9.23;;;17.50;99.90;;;;;;4980024;28;20050;-43
2022/06/25 03:51:44;;;;;;;10.95;9.80;;;17.50;99.90;;;;;;4963077;28;20051;-43
2022/06/25 03:54:11;;;;;;;10.23;8.00;;;17.50;99.90;;;;;;4959072;28;20097;-43
2022/06/25 03:56:39;;;;;;;11.23;9.50;;;17.50;99.90;;;;;;4975310;28;20050;-43
2022/06/25 03:59:06;;;;;;;9.15;8.20;;;17.50;99.90;;;;;;4958677;28;20453;-43
2022/06/25 04:01:32;;;;;;;11.98;8.13;;;17.50;99.90;;;;;;4960467;28;20066;-43
2022/06/25 04:03:59;;;;;;;12.50;8.75;;;17.50;99.90;;;;;;4975920;28;20109;-43
2022/06/25 04:06:26;;;;;;;9.57;8.68;;;17.50;99.90;;;;;;4975797;28;20082;-43
2022/06/25 04:08:53;;;;;;;10.60;9.40;;;17.50;99.90;;;;;;4976271;28;20040;-43
2022/06/25 04:11:20;;;;;;;10.20;9.05;;;17.50;99.90;;;;;;4976503;28;20125;-43
2022/06/25 04:13:48;;;;;;;9.45;8.07;;;17.50;99.90;;;;;;4959361;28;20047;-43
2022/06/25 04:16:15;;;;;;;10.55;9.13;;;17.50;99.90;;;;;;4975224;28;20093;-43
2022/06/25 04:18:41;;;;;;;10.60;9.48;;;17.50;99.90;;;;;;4960904;28;20046;-43
2022/06/25 04:21:08;;;;;;;13.35;8.98;;;17.50;99.90;;;;;;4977363;28;20077;-43
2022/06/25 04:23:35;;;;;;;9.65;8.00;;;17.50;99.90;;;;;;4975390;28;20092;-43
2022/06/25 04:26:02;;;;;;;9.85;8.85;;;17.50;99.90;;;;;;4958983;28;20043;-43
2022/06/25 04:31:15;;;;;;;12.20;9.40;;;17.50;99.90;;;;;;4955972;28;20034;-43
2022/06/25 04:33:42;;;;;;;10.32;9.25;;;17.60;99.90;;;;;;4960541;28;20042;-43
2022/06/25 04:36:08;;;;;;;10.30;9.05;;;17.60;99.90;;;;;;4960783;28;20078;-43
2022/06/25 04:38:35;;;;;;;11.05;8.27;;;17.60;99.90;;;;;;4968658;28;20077;-43
2022/06/25 04:41:02;;;;;;;10.23;8.98;;;17.60;99.90;;;;;;4960912;28;20131;-43
2022/06/25 04:43:29;;;;;;;11.88;8.48;;;17.60;99.90;;;;;;4975692;28;20133;-43
2022/06/25 04:45:55;;;;;;;9.73;8.73;;;17.60;99.90;;;;;;4972907;28;20102;-43
2022/06/25 04:48:24;;;;;;;13.68;9.38;;;17.60;99.90;;;;;;4975318;28;20108;-43
2022/06/25 04:50:50;;;;;;;14.93;9.73;;;17.60;99.90;;;;;;4979191;28;20074;-44
2022/06/25 04:53:17;;;;;;;11.63;8.90;;;17.70;99.90;;;;;;4977169;28;20050;-43
2022/06/25 04:55:44;;;;;;;13.27;9.25;;;17.70;99.90;;;;;;4974137;28;20066;-43
2022/06/25 04:58:11;;;;;;;12.00;8.70;;;17.70;99.90;;;;;;4978625;28;20047;-43
2022/06/25 05:00:38;;;;;;;10.13;8.35;;;17.80;99.90;;;;;;4956490;28;20145;-43
2022/06/25 05:03:05;;;;;;;10.23;7.53;;;17.80;99.90;;;;;;4958988;28;20051;-43
2022/06/25 05:05:33;;;;;;;11.60;8.65;;;17.80;99.90;;;;;;4956842;28;20159;-43
2022/06/25 05:08:00;;;;;;;10.20;8.23;;;17.80;99.90;;;;;;4960533;28;20047;-43
2022/06/25 05:10:27;;;;;;;10.07;8.25;;;17.90;99.90;;;;;;4977569;28;20050;-43
2022/06/25 05:15:39;;;;;;;11.38;8.25;;;18.00;99.90;;;;;;4953172;28;20133;-43
2022/06/25 05:18:06;;;;;;;10.40;7.97;;;18.00;99.90;;;;;;4956511;28;20137;-43
2022/06/25 05:20:37;;;;;;;12.32;8.20;;;18.10;99.90;;;;;;4957719;28;20566;-43
2022/06/25 05:23:03;;;;;;;11.30;8.20;;;18.20;99.90;;;;;;4958521;28;20051;-43
2022/06/25 05:25:30;;;;;;;11.30;8.43;;;18.20;99.90;;;;;;4973724;28;20479;-43
2022/06/25 05:27:57;;;;;;;12.75;7.82;;;18.30;99.90;;;;;;4975911;28;20046;-43
2022/06/25 05:30:24;;;;;;;11.40;7.95;;;18.40;99.90;;;;;;4978281;28;20129;-43
2022/06/25 05:32:51;;;;;;;8.95;7.47;;;18.60;99.90;;;;;;4974546;28;20038;-43
2022/06/25 05:35:18;;;;;;;10.88;7.65;;;18.70;99.90;;;;;;4956536;28;20130;-43
2022/06/25 05:37:46;;;;;;;9.50;7.07;;;18.70;99.90;;;;;;4975675;28;20074;-44
2022/06/25 05:40:13;;;;;;;9.45;7.10;;;18.80;99.90;;;;;;4974146;28;20050;-43
2022/06/25 05:42:40;;;;;;;8.00;6.90;;;18.90;99.90;;;;;;4957420;28;20089;-43
2022/06/25 05:45:08;;;;;;;9.32;6.97;;;19.00;99.90;;;;;;4957859;28;20434;-43
2022/06/25 05:47:35;;;;;;;11.70;7.25;;;19.10;99.90;;;;;;4974358;28;20090;-43
2022/06/25 05:50:02;;;;;;;8.52;7.15;;;19.20;99.90;;;;;;4978384;28;20054;-43
2022/06/25 05:52:28;;;;;;;11.93;6.32;;;19.30;99.90;;;;;;4973771;28;20126;-44
2022/06/25 05:54:56;;;;;;;7.18;5.70;;;19.40;99.90;;;;;;4977350;28;20491;-43
2022/06/25 05:57:23;;;;;;;9.77;6.07;;;19.40;99.90;;;;;;4958638;28;20086;-43
2022/06/25 05:59:50;;;;;;;8.75;5.75;;;19.50;99.90;;;;;;4957194;28;20054;-43
2022/06/25 06:02:17;;;;;;;12.40;5.85;;;19.60;99.90;;;;;;4977060;28;20047;-43
2022/06/25 06:04:44;;;;;;;11.38;5.80;;;19.70;99.90;;;;;;4994414;28;20058;-43
2022/06/25 06:07:11;;;;;;;10.68;5.57;;;19.80;99.90;;;;;;4997084;28;20041;-44
2022/06/25 06:09:38;;;;;;;7.95;5.30;;;19.90;99.90;;;;;;4975318;28;20470;-43
2022/06/25 06:12:06;;;;;;;7.47;4.80;;;20.00;99.90;;;;;;4976021;28;20039;-43
2022/06/25 06:14:33;;;;;;;7.18;4.82;;;20.20;99.90;;;;;;4994430;28;20084;-43
2022/06/25 06:17:00;;;;;;;10.02;4.82;;;20.20;99.90;;;;;;4976001;28;20050;-42
2022/06/25 06:19:27;;;;;;;8.93;4.80;;;20.30;99.90;;;;;;4995201;28;20080;-42
2022/06/25 06:21:54;;;;;;;5.82;4.35;;;20.40;99.90;;;;;;5005740;28;20490;-43
2022/06/25 06:24:21;;;;;;;7.20;4.30;;;20.40;99.90;;;;;;4975939;28;20414;-43
2022/06/25 06:26:48;;;;;;;10.35;4.55;;;20.60;99.90;;;;;;4976735;28;20100;-43
2022/06/25 06:29:17;;;;;;;7.00;4.00;;;20.70;99.90;;;;;;4976918;28;20074;-43
2022/06/25 06:31:44;;;;;;;8.27;4.30;;;20.90;99.90;;;;;;4990623;28;20117;-43
2022/06/25 06:34:11;;;;;;;7.05;3.83;;;21.00;99.90;;;;;;4993957;28;20105;-42
2022/06/25 06:36:37;;;;;;;8.25;3.85;;;21.10;99.90;;;;;;4973880;28;20082;-42
2022/06/25 06:39:04;;;;;;;7.22;3.95;;;21.20;99.90;;;;;;4997861;28;20140;-43
2022/06/25 06:41:31;;;;;;;5.75;3.28;;;21.40;99.90;;;;;;4975771;28;20431;-44
2022/06/25 06:43:58;;;;;;;6.70;4.15;;;21.60;99.90;;;;;;4991482;28;20120;-41
2022/06/25 06:46:26;;;;;;;6.63;3.95;;;21.70;99.90;;;;;;4991922;28;20085;-44
2022/06/25 06:48:53;;;;;;;6.53;3.40;;;21.80;99.90;;;;;;4970798;28;20538;-44
2022/06/25 06:51:19;;;;;;;6.85;3.60;;;21.90;99.90;;;;;;4983429;28;20046;-44
2022/06/25 06:53:46;;;;;;;9.95;3.28;;;22.00;99.90;;;;;;4973267;28;20088;-44
2022/06/25 06:56:13;;;;;;;8.52;3.50;;;22.10;99.90;;;;;;4974694;28;20046;-44
2022/06/25 06:58:40;;;;;;;8.50;3.08;;;22.20;99.70;;;;;;4992282;28;20541;-44
2022/06/25 07:01:07;;;;;;;6.35;3.28;;;22.30;99.70;;;;;;4972548;28;20096;-45
2022/06/25 07:03:35;;;;;;;7.97;3.90;;;22.40;99.60;;;;;;4968297;28;20050;-44
2022/06/25 07:06:01;;;;;;;9.23;3.15;;;22.50;99.00;;;;;;4972370;28;20117;-43
2022/06/25 07:08:28;;;;;;;7.15;2.85;;;22.60;98.50;;;;;;4972580;28;20065;-44
2022/06/25 07:10:55;;;;;;;7.32;3.00;;;22.60;98.50;;;;;;4991717;28;20478;-44
2022/06/25 07:13:22;;;;;;;6.70;3.00;;;22.80;98.10;;;;;;4972298;28;20086;-44
2022/06/25 07:15:49;;;;;;;8.93;3.58;;;22.90;97.80;;;;;;4980322;28;20050;-43
2022/06/25 07:18:15;;;;;;;8.05;3.10;;;22.90;97.50;;;;;;4974621;28;20165;-43
2022/06/25 07:20:43;;;;;;;7.93;3.10;;;23.00;97.50;;;;;;4993319;28;20522;-45
2022/06/25 07:23:10;;;;;;;9.18;2.80;;;23.10;97.00;;;;;;5001082;28;20068;-44
2022/06/25 07:25:37;;;;;;;7.95;3.00;;;23.20;96.70;;;;;;4994028;28;20050;-44
2022/06/25 07:28:04;;;;;;;6.40;3.08;;;23.30;96.80;;;;;;4990364;28;20198;-44
2022/06/25 07:30:31;;;;;;;8.95;2.58;;;23.50;95.90;;;;;;4974287;28;20134;-43
2022/06/25 07:32:58;;;;;;;7.47;2.90;;;23.60;95.90;;;;;;4989503;28;20034;-43
2022/06/25 07:35:24;;;;;;;5.60;2.63;;;23.70;95.30;;;;;;4988669;28;20050;-43
2022/06/25 07:37:53;;;;;;;5.10;2.85;;;23.80;95.30;;;;;;4977018;28;20077;-43
2022/06/25 07:40:22;;;;;;;6.25;2.80;;;23.80;94.10;;;;;;4976236;28;20049;-43
2022/06/25 07:42:48;;;;;;;5.22;2.97;;;23.80;94.20;;;;;;4990255;28;20494;-44
2022/06/25 07:45:15;;;;;;;12.35;3.63;;;23.90;94.50;;;;;;4992528;28;20070;-43
2022/06/25 07:47:42;;;;;;;5.65;2.97;;;23.90;94.10;;;;;;4971084;28;20116;-43
2022/06/25 07:52:55;;;;;;;4.03;2.63;;;24.10;93.80;;;;;;4994101;28;20046;-43
2022/06/25 07:55:22;;;;;;;5.00;2.40;;;24.30;93.80;;;;;;4976719;28;20050;-43
2022/06/25 07:57:48;;;;;;;7.50;2.65;;;24.40;93.60;;;;;;4972932;28;20066;-43
2022/06/25 08:00:16;;;;;;;6.57;2.55;;;24.50;93.40;;;;;;4977755;28;21326;-42
2022/06/25 08:02:43;;;;;;;5.03;2.75;;;24.60;92.90;;;;;;4979488;28;20554;-43
2022/06/25 08:05:10;;;;;;;6.35;3.10;;;24.70;92.30;;;;;;4974352;28;20069;-43
2022/06/25 08:07:36;;;;;;;6.38;2.30;;;24.80;92.00;;;;;;4950317;28;20138;-43
2022/06/25 08:10:05;;;;;;;7.07;2.53;;;24.80;91.90;;;;;;4968846;28;20109;-42
2022/06/25 08:12:32;;;;;;;4.68;2.22;;;24.70;91.30;;;;;;4984468;28;20121;-42
2022/06/25 08:14:59;;;;;;;3.72;1.58;;;24.60;91.60;;;;;;4994216;28;20070;-43
2022/06/25 08:17:26;;;;;;;4.65;2.03;;;24.70;91.40;;;;;;4992868;28;20042;-43
2022/06/25 08:19:53;;;;;;;5.05;1.58;;;24.80;90.70;;;;;;4995382;28;20426;-43
2022/06/25 08:22:20;;;;;;;5.70;1.60;;;24.80;90.30;;;;;;4987161;28;20042;-43
2022/06/25 08:24:46;;;;;;;3.70;1.67;;;24.90;90.40;;;;;;4971698;28;20038;-42
2022/06/25 08:27:15;;;;;;;5.78;2.00;;;24.90;90.10;;;;;;4975806;28;20058;-43
2022/06/25 08:29:42;;;;;;;2.70;1.58;;;25.00;90.10;;;;;;4989852;28;20475;-43
2022/06/25 08:32:09;;;;;;;3.35;1.60;;;25.00;90.20;;;;;;4949720;28;20050;-43
2022/06/25 08:34:35;;;;;;;5.07;1.60;;;25.20;89.70;;;;;;4967055;28;20482;-43
2022/06/25 08:37:04;;;;;;;5.07;1.80;;;25.30;88.90;;;;;;4998592;28;20429;-43
2022/06/25 08:39:31;;;;;;;3.92;1.50;;;25.40;88.60;;;;;;4976725;28;20050;-43
2022/06/25 08:41:59;;;;;;;4.20;1.80;;;25.50;88.10;;;;;;4975067;28;20192;-43
2022/06/25 08:44:27;;;;;;;8.82;2.05;;;25.50;88.40;;;;;;4982999;28;20046;-44
2022/06/25 08:46:54;;;;;;;4.40;1.88;;;25.40;88.60;;;;;;5000274;28;20041;-44
2022/06/25 08:49:21;;;;;;;4.70;1.55;;;25.50;89.60;;;;;;4972316;28;20441;-43
2022/06/25 08:51:48;;;;;;;4.45;1.83;;;25.60;90.20;;;;;;4970326;28;20054;-43
2022/06/25 08:54:15;;;;;;;3.50;2.03;;;25.80;90.20;;;;;;4969477;28;20047;-44
2022/06/25 08:56:42;;;;;;;11.07;1.67;;;26.00;89.00;;;;;;4986407;28;20046;-43
2022/06/25 08:59:09;;;;;;;3.22;1.60;;;26.00;88.30;;;;;;4965895;28;20057;-43
2022/06/25 09:01:37;;;;;;;4.57;1.73;;;26.10;87.10;;;;;;4963803;28;20070;-43
2022/06/25 09:04:04;;;;;;;5.95;1.70;;;26.10;85.40;;;;;;4975769;28;20054;-43
2022/06/25 09:06:31;;;;;;;5.72;1.70;;;26.30;86.00;;;;;;5004860;28;20138;-43
2022/06/25 09:09:09;;;;;;;6.30;1.60;;;26.40;85.00;;;;;;4979655;28;20087;-44
2022/06/25 09:11:49;;;;;;;5.10;1.88;;;26.50;83.60;;;;;;4982256;28;20053;-44
2022/06/25 09:14:20;;;;;;;6.68;1.67;;;26.40;83.70;;;;;;4985088;28;20084;-43
2022/06/25 09:16:54;;;;;;;5.53;1.65;;;26.30;83.80;;;;;;4987638;28;20130;-43
2022/06/25 09:19:31;;;;;;;5.30;1.50;;;26.30;83.60;;;;;;4995073;28;20043;-43
2022/06/25 09:21:58;;;;;;;4.47;1.30;;;26.30;84.40;;;;;;4999833;28;20445;-43
2022/06/25 09:24:35;;;;;;;2.22;1.10;;;26.40;83.20;;;;;;4974408;28;20046;-43
2022/06/25 09:27:02;;;;;;;4.10;1.33;;;26.50;83.70;;;;;;4995218;28;20132;-43
2022/06/25 09:29:37;;;;;;;5.07;1.40;;;26.60;83.60;;;;;;4975705;28;20066;-44
2022/06/25 09:32:06;;;;;;;2.90;1.65;;;26.70;81.00;;;;;;4993010;28;20478;-43
2022/06/25 09:34:33;;;;;;;3.20;1.30;;;26.70;80.60;;;;;;4987261;28;20510;-43
2022/06/25 09:37:15;;;;;;;2.40;1.17;;;26.70;82.00;;;;;;4993123;28;20046;-43
2022/06/25 09:39:42;;;;;;;3.50;1.30;;;26.80;82.10;;;;;;4978951;28;20093;-44
2022/06/25 09:42:12;;;;;;;2.72;1.15;;;26.90;81.00;;;;;;4988596;28;20053;-43
2022/06/25 09:44:39;;;;;;;4.03;1.27;;;27.20;81.20;;;;;;4972336;28;20073;-44
2022/06/25 09:47:07;;;;;;;2.85;1.13;;;27.30;80.20;;;;;;4997916;28;20046;-44
2022/06/25 09:49:34;;;;;;;5.57;1.80;;;27.20;80.20;;;;;;4990328;28;20101;-44
2022/06/25 09:52:00;;;;;;;4.30;1.35;;;27.20;79.90;;;;;;4973918;28;20089;-44
2022/06/25 09:54:27;;;;;;;3.42;1.42;;;27.10;78.60;;;;;;4993948;28;20104;-44
2022/06/25 09:56:54;;;;;;;3.67;1.40;;;27.20;79.00;;;;;;4972747;28;20438;-44
2022/06/25 09:59:22;;;;;;;3.70;1.40;;;27.30;79.30;;;;;;4978375;28;20069;-44
2022/06/25 10:01:48;;;;;;;3.22;1.48;;;27.40;78.40;;;;;;4993617;28;20054;-44
2022/06/25 10:04:17;;;;;;;3.53;1.30;;;27.40;77.00;;;;;;4974015;28;20121;-44
2022/06/25 10:06:43;;;;;;;2.75;1.15;;;27.40;76.60;;;;;;4987113;28;20050;-43
2022/06/25 10:09:10;;;;;;;3.65;1.30;;;27.50;78.10;;;;;;4974683;28;20082;-44
2022/06/25 10:11:38;;;;;;;4.22;1.55;;;27.60;76.80;;;;;;4991749;28;20046;-43
2022/06/25 10:14:05;;;;;;;4.95;1.17;;;27.70;77.40;;;;;;4992031;28;20046;-44
2022/06/25 10:16:32;;;;;;;6.25;1.50;;;27.80;76.60;;;;;;4978895;28;20077;-43
2022/06/25 10:18:58;;;;;;;3.60;1.27;;;27.80;75.20;;;;;;4992189;28;20046;-44
2022/06/25 10:21:26;;;;;;;2.67;1.05;;;27.90;74.50;;;;;;4990323;28;20076;-44
2022/06/25 10:23:55;;;;;;;5.28;1.38;;;27.80;74.40;;;;;;4989711;28;20376;-43
2022/06/25 10:26:22;;;;;;;3.17;1.05;;;27.90;73.50;;;;;;4977287;28;20053;-44
2022/06/25 10:28:49;;;;;;;2.33;1.20;;;28.10;72.80;;;;;;4988789;28;20050;-44
2022/06/25 10:31:17;;;;;;;3.47;1.05;;;28.20;72.90;;;;;;4991430;28;20384;-43
2022/06/25 10:33:53;;;;;;;4.93;1.10;;;28.30;73.30;;;;;;4996101;28;20355;-43
2022/06/25 10:36:40;;;;;;;4.35;1.02;;;28.30;70.20;;;;;;4987808;28;20092;-43
2022/06/25 10:39:35;;;;;;;4.10;1.00;;;28.00;71.00;;;;;;4992639;28;20051;-43
2022/06/25 10:45:08;;;;;;;5.95;1.10;;;27.80;72.60;;;;;;4969720;28;20050;-44
2022/06/25 10:47:38;;;;;;;4.40;1.10;;;27.70;72.10;;;;;;4977721;28;20137;-44
2022/06/25 10:50:27;;;;;;;3.13;1.13;;;27.50;71.50;;;;;;4996618;28;20041;-44
2022/06/25 10:53:20;;;;;;;2.03;1.00;;;27.50;72.90;;;;;;4975609;28;20043;-44
2022/06/25 10:56:22;;;;;;;2.95;1.10;;;27.40;73.30;;;;;;4956717;28;20050;-44
2022/06/25 10:58:49;;;;;;;5.85;1.40;;;27.40;72.90;;;;;;4985327;28;20137;-44
2022/06/25 11:01:31;;;;;;;6.82;1.35;;;27.30;72.00;;;;;;4974074;28;20046;-44
2022/06/25 11:04:05;;;;;;;3.25;1.00;;;27.20;71.80;;;;;;4989574;28;20105;-44
2022/06/25 11:06:34;;;;;;;2.53;1.00;;;27.10;73.10;;;;;;4968828;28;20073;-45
2022/06/25 11:09:13;;;;;;;4.07;1.25;;;27.10;73.80;;;;;;4993642;28;20049;-44
2022/06/25 11:11:41;;;;;;;3.35;1.13;;;27.20;73.20;;;;;;4968066;28;20042;-44
2022/06/25 11:14:16;;;;;;;5.10;1.52;;;27.20;72.80;;;;;;4999128;28;20050;-44
2022/06/25 11:16:43;;;;;;;3.63;1.20;;;27.20;71.50;;;;;;4974066;28;20442;-44
2022/06/25 11:19:10;;;;;;;3.33;1.40;;;27.20;73.30;;;;;;4966727;28;20042;-44
2022/06/25 11:21:37;;;;;;;6.10;1.30;;;27.20;72.90;;;;;;4965099;28;20077;-44
2022/06/25 11:24:13;;;;;;;3.95;1.30;;;27.00;72.10;;;;;;4990032;28;20038;-44
2022/06/25 11:29:25;;;;;;;12.15;1.45;;;26.70;72.50;;;;;;4989154;28;20042;-44
2022/06/25 11:31:52;;;;;;;6.78;1.20;;;26.60;73.00;;;;;;4991630;28;20050;-44
2022/06/25 11:34:19;;;;;;;4.25;1.17;;;26.60;73.50;;;;;;4976675;28;20042;-45
2022/06/25 11:36:46;;;;;;;2.75;1.00;;;26.70;72.90;;;;;;4988663;28;20086;-44
2022/06/25 11:39:16;;;;;;;3.10;1.20;;;26.60;74.10;;;;;;4992570;28;20074;-44
2022/06/25 11:41:44;;;;;;;3.20;1.30;;;26.70;74.10;;;;;;4991744;28;20390;-44
2022/06/25 11:44:11;;;;;;;3.30;1.00;;;26.70;73.90;;;;;;4975596;28;20183;-44
2022/06/25 11:46:38;;;;;;;2.95;1.15;;;26.70;74.30;;;;;;4970111;28;20050;-44
2022/06/25 11:49:05;;;;;;;4.10;1.13;;;26.70;75.40;;;;;;4972252;28;20042;-45
2022/06/25 11:51:32;;;;;;;5.00;1.20;;;26.70;75.20;;;;;;4990147;28;20064;-44
2022/06/25 11:54:04;;;;;;;4.15;1.23;;;26.70;75.30;;;;;;5008677;28;20494;-43
2022/06/25 11:56:32;;;;;;;3.83;1.30;;;26.70;75.40;;;;;;5014507;28;20081;-43
2022/06/25 11:58:59;;;;;;;4.55;1.33;;;26.60;76.10;;;;;;5016469;28;20046;-43
2022/06/25 12:01:28;;;;;;;5.70;1.23;;;26.50;77.10;;;;;;5016206;28;20054;-43
2022/06/25 12:03:55;;;;;;;3.65;1.60;;;26.40;78.10;;;;;;4997001;28;20054;-43
2022/06/25 12:06:22;;;;;;;3.33;1.60;;;26.40;78.50;;;;;;4996522;28;20042;-43
2022/06/25 12:08:49;;;;;;;5.00;1.70;;;26.30;79.10;;;;;;4996265;28;20146;-43
2022/06/25 12:11:16;;;;;;;4.57;1.60;;;26.30;79.60;;;;;;4978337;28;20046;-43
2022/06/25 12:13:44;;;;;;;3.72;1.70;;;26.30;80.10;;;;;;4988997;28;20078;-43
2022/06/25 12:16:10;;;;;;;3.83;1.75;;;26.20;80.50;;;;;;4996437;28;20081;-44
2022/06/25 12:18:38;;;;;;;3.88;1.55;;;26.20;80.60;;;;;;4997964;28;20785;-44
2022/06/25 12:21:05;;;;;;;3.22;1.50;;;26.20;80.90;;;;;;4998397;28;20045;-43
2022/06/25 12:23:50;;;;;;;3.10;1.40;;;26.20;81.50;;;;;;5015698;28;20046;-43
2022/06/25 12:26:24;;;;;;;6.03;2.13;;;26.20;81.50;;;;;;4995702;28;20081;-44
2022/06/25 12:28:53;;;;;;;2.83;1.80;;;26.20;82.20;;;;;;4978209;28;20093;-44
2022/06/25 12:31:19;;;;;;;4.75;1.40;;;26.10;82.00;;;;;;4996083;28;20418;-44
2022/06/25 12:33:50;;;;;;;3.85;1.50;;;26.00;82.70;;;;;;4978969;28;20125;-43
2022/06/25 12:36:17;;;;;;;6.03;1.50;;;26.00;83.20;;;;;;4985898;28;20046;-44
2022/06/25 12:38:44;;;;;;;4.30;1.60;;;26.00;83.30;;;;;;5005903;28;20394;-45
2022/06/25 12:41:11;;;;;;;3.22;1.73;;;25.90;83.60;;;;;;4996252;28;20078;-44
2022/06/25 12:43:45;;;;;;;6.43;1.40;;;25.90;83.80;;;;;;4975400;28;20050;-44
2022/06/25 12:46:13;;;;;;;6.32;1.65;;;25.90;84.10;;;;;;4959255;28;20051;-43
2022/06/25 12:48:40;;;;;;;4.20;1.58;;;25.90;84.20;;;;;;4982294;28;20068;-43
2022/06/25 12:51:08;;;;;;;5.10;1.80;;;25.90;84.40;;;;;;4995609;28;20129;-43
2022/06/25 12:53:35;;;;;;;3.03;1.52;;;25.90;84.20;;;;;;4978076;28;20042;-43
2022/06/25 12:56:02;;;;;;;3.63;1.38;;;26.00;83.90;;;;;;4978212;28;20541;-43
2022/06/25 12:58:33;;;;;;;2.78;1.50;;;26.00;83.90;;;;;;4977668;28;20078;-43
2022/06/25 13:01:00;;;;;;;2.83;1.48;;;26.00;84.10;;;;;;4994965;28;20042;-44